sensor_id;sensor_type;location;lat;lon;timestamp;P1;durP1;ratioP1;P2;durP2;ratioP2
5904;SDS011;2978;42.012;24.880;2023-03-12T00:04:14;1.73;;;1.27;;
5904;SDS011;2978;42.012;24.880;2023-03-12T00:06:40;1.63;;;1.00;;
5904;SDS011;2978;42.012;24.880;2023-03-12T00:09:05;1.50;;;1.10;;
5904;SDS011;2978;42.012;24.880;2023-03-12T00:11:31;7.60;;;1.53;;
5904;SDS011;2978;42.012;24.880;2023-03-12T00:22:31;5.03;;;1.07;;
5904;SDS011;2978;42.012;24.880;2023-03-12T00:24:57;1.47;;;1.00;;
5904;SDS011;2978;42.012;24.880;2023-03-12T00:27:23;1.00;;;0.90;;
5904;SDS011;2978;42.012;24.880;2023-03-12T00:29:49;1.87;;;1.30;;
5904;SDS011;2978;42.012;24.880;2023-03-12T00:32:15;1.27;;;1.00;;
5904;SDS011;2978;42.012;24.880;2023-03-12T00:34:40;2.40;;;1.33;;
5904;SDS011;2978;42.012;24.880;2023-03-12T00:37:06;2.43;;;0.97;;
5904;SDS011;2978;42.012;24.880;2023-03-12T00:39:32;4.63;;;1.10;;
5904;SDS011;2978;42.012;24.880;2023-03-12T00:41:58;1.83;;;0.90;;
5904;SDS011;2978;42.012;24.880;2023-03-12T00:44:24;3.17;;;1.33;;
5904;SDS011;2978;42.012;24.880;2023-03-12T00:46:49;1.97;;;1.23;;
5904;SDS011;2978;42.012;24.880;2023-03-12T00:49:15;3.27;;;1.20;;
5904;SDS011;2978;42.012;24.880;2023-03-12T00:51:40;1.53;;;1.20;;
5904;SDS011;2978;42.012;24.880;2023-03-12T00:54:06;1.70;;;1.10;;
5904;SDS011;2978;42.012;24.880;2023-03-12T00:56:31;5.87;;;1.47;;
5904;SDS011;2978;42.012;24.880;2023-03-12T00:58:56;1.80;;;1.53;;
5904;SDS011;2978;42.012;24.880;2023-03-12T01:01:22;1.40;;;1.30;;
5904;SDS011;2978;42.012;24.880;2023-03-12T01:03:48;2.50;;;1.27;;
5904;SDS011;2978;42.012;24.880;2023-03-12T01:06:16;1.30;;;1.20;;
5904;SDS011;2978;42.012;24.880;2023-03-12T01:08:42;1.47;;;1.30;;
5904;SDS011;2978;42.012;24.880;2023-03-12T01:11:11;1.10;;;1.00;;
5904;SDS011;2978;42.012;24.880;2023-03-12T01:13:40;1.53;;;1.43;;
5904;SDS011;2978;42.012;24.880;2023-03-12T01:16:05;2.03;;;1.10;;
5904;SDS011;2978;42.012;24.880;2023-03-12T01:18:31;1.20;;;1.10;;
5904;SDS011;2978;42.012;24.880;2023-03-12T01:20:56;1.53;;;1.27;;
5904;SDS011;2978;42.012;24.880;2023-03-12T01:23:23;1.87;;;1.33;;
5904;SDS011;2978;42.012;24.880;2023-03-12T01:25:49;1.97;;;1.40;;
5904;SDS011;2978;42.012;24.880;2023-03-12T01:28:16;1.53;;;1.43;;
5904;SDS011;2978;42.012;24.880;2023-03-12T01:30:41;1.60;;;1.50;;
5904;SDS011;2978;42.012;24.880;2023-03-12T01:33:07;5.37;;;1.40;;
5904;SDS011;2978;42.012;24.880;2023-03-12T01:35:36;1.20;;;1.10;;
5904;SDS011;2978;42.012;24.880;2023-03-12T01:49:27;1.40;;;1.20;;
5904;SDS011;2978;42.012;24.880;2023-03-12T01:52:02;1.53;;;1.30;;
5904;SDS011;2978;42.012;24.880;2023-03-12T01:54:32;1.57;;;1.47;;
5904;SDS011;2978;42.012;24.880;2023-03-12T01:57:02;3.47;;;1.60;;
5904;SDS011;2978;42.012;24.880;2023-03-12T01:59:34;2.30;;;1.20;;
5904;SDS011;2978;42.012;24.880;2023-03-12T02:02:08;1.73;;;1.40;;
5904;SDS011;2978;42.012;24.880;2023-03-12T02:04:33;6.53;;;1.57;;
5904;SDS011;2978;42.012;24.880;2023-03-12T02:09:38;2.40;;;1.50;;
5904;SDS011;2978;42.012;24.880;2023-03-12T02:12:06;6.10;;;1.73;;
5904;SDS011;2978;42.012;24.880;2023-03-12T02:14:32;4.03;;;1.63;;
5904;SDS011;2978;42.012;24.880;2023-03-12T02:16:58;3.37;;;1.37;;
5904;SDS011;2978;42.012;24.880;2023-03-12T02:19:37;3.57;;;1.67;;
5904;SDS011;2978;42.012;24.880;2023-03-12T02:22:15;5.27;;;2.23;;
5904;SDS011;2978;42.012;24.880;2023-03-12T02:24:47;6.70;;;1.97;;
5904;SDS011;2978;42.012;24.880;2023-03-12T02:27:18;4.23;;;2.23;;
5904;SDS011;2978;42.012;24.880;2023-03-12T02:29:46;9.83;;;2.00;;
5904;SDS011;2978;42.012;24.880;2023-03-12T02:32:25;7.37;;;1.87;;
5904;SDS011;2978;42.012;24.880;2023-03-12T02:34:55;4.43;;;1.73;;
5904;SDS011;2978;42.012;24.880;2023-03-12T02:37:21;2.90;;;2.00;;
5904;SDS011;2978;42.012;24.880;2023-03-12T02:39:49;11.27;;;2.00;;
5904;SDS011;2978;42.012;24.880;2023-03-12T02:42:21;4.80;;;1.73;;
5904;SDS011;2978;42.012;24.880;2023-03-12T02:45:03;2.10;;;1.33;;
5904;SDS011;2978;42.012;24.880;2023-03-12T02:47:29;4.63;;;1.70;;
5904;SDS011;2978;42.012;24.880;2023-03-12T02:50:10;6.13;;;1.57;;
5904;SDS011;2978;42.012;24.880;2023-03-12T02:55:37;8.57;;;2.07;;
5904;SDS011;2978;42.012;24.880;2023-03-12T02:58:06;3.43;;;2.13;;
5904;SDS011;2978;42.012;24.880;2023-03-12T03:00:31;5.00;;;1.70;;
5904;SDS011;2978;42.012;24.880;2023-03-12T03:02:57;12.67;;;1.83;;
5904;SDS011;2978;42.012;24.880;2023-03-12T03:05:23;3.43;;;2.20;;
5904;SDS011;2978;42.012;24.880;2023-03-12T03:07:49;6.53;;;1.50;;
5904;SDS011;2978;42.012;24.880;2023-03-12T03:10:14;2.40;;;1.77;;
5904;SDS011;2978;42.012;24.880;2023-03-12T03:12:41;3.43;;;1.40;;
5904;SDS011;2978;42.012;24.880;2023-03-12T03:15:07;2.90;;;1.97;;
5904;SDS011;2978;42.012;24.880;2023-03-12T03:17:36;7.80;;;1.90;;
5904;SDS011;2978;42.012;24.880;2023-03-12T03:20:05;2.90;;;1.23;;
5904;SDS011;2978;42.012;24.880;2023-03-12T03:22:40;1.70;;;1.30;;
5904;SDS011;2978;42.012;24.880;2023-03-12T03:25:07;1.90;;;1.30;;
5904;SDS011;2978;42.012;24.880;2023-03-12T03:27:34;5.07;;;1.97;;
5904;SDS011;2978;42.012;24.880;2023-03-12T03:29:59;2.10;;;1.37;;
5904;SDS011;2978;42.012;24.880;2023-03-12T03:32:25;3.37;;;1.70;;
5904;SDS011;2978;42.012;24.880;2023-03-12T03:34:51;4.00;;;1.73;;
5904;SDS011;2978;42.012;24.880;2023-03-12T03:37:16;5.40;;;2.00;;
5904;SDS011;2978;42.012;24.880;2023-03-12T03:39:42;3.07;;;1.60;;
5904;SDS011;2978;42.012;24.880;2023-03-12T03:42:07;3.90;;;1.40;;
5904;SDS011;2978;42.012;24.880;2023-03-12T03:44:33;6.20;;;1.40;;
5904;SDS011;2978;42.012;24.880;2023-03-12T03:46:58;5.30;;;2.10;;
5904;SDS011;2978;42.012;24.880;2023-03-12T03:49:23;12.83;;;1.80;;
5904;SDS011;2978;42.012;24.880;2023-03-12T03:51:49;2.80;;;1.60;;
5904;SDS011;2978;42.012;24.880;2023-03-12T03:54:15;2.13;;;1.50;;
5904;SDS011;2978;42.012;24.880;2023-03-12T03:56:41;3.60;;;1.73;;
5904;SDS011;2978;42.012;24.880;2023-03-12T03:59:07;1.63;;;1.53;;
5904;SDS011;2978;42.012;24.880;2023-03-12T04:01:33;4.80;;;1.77;;
5904;SDS011;2978;42.012;24.880;2023-03-12T04:03:58;1.40;;;1.30;;
5904;SDS011;2978;42.012;24.880;2023-03-12T04:06:24;2.03;;;1.60;;
5904;SDS011;2978;42.012;24.880;2023-03-12T04:08:50;1.77;;;1.40;;
5904;SDS011;2978;42.012;24.880;2023-03-12T04:11:17;7.23;;;1.77;;
5904;SDS011;2978;42.012;24.880;2023-03-12T04:13:44;3.00;;;1.60;;
5904;SDS011;2978;42.012;24.880;2023-03-12T04:16:10;3.17;;;1.67;;
5904;SDS011;2978;42.012;24.880;2023-03-12T04:18:36;1.97;;;1.50;;
5904;SDS011;2978;42.012;24.880;2023-03-12T04:21:03;3.00;;;1.50;;
5904;SDS011;2978;42.012;24.880;2023-03-12T04:23:29;1.90;;;1.70;;
5904;SDS011;2978;42.012;24.880;2023-03-12T04:25:55;2.40;;;1.47;;
5904;SDS011;2978;42.012;24.880;2023-03-12T04:28:21;2.57;;;1.63;;
5904;SDS011;2978;42.012;24.880;2023-03-12T04:30:53;2.30;;;1.70;;
5904;SDS011;2978;42.012;24.880;2023-03-12T04:33:26;3.33;;;1.30;;
5904;SDS011;2978;42.012;24.880;2023-03-12T04:35:57;1.60;;;1.50;;
5904;SDS011;2978;42.012;24.880;2023-03-12T04:38:23;6.67;;;1.30;;
5904;SDS011;2978;42.012;24.880;2023-03-12T04:43:44;1.17;;;1.17;;
5904;SDS011;2978;42.012;24.880;2023-03-12T04:46:09;5.87;;;1.60;;
5904;SDS011;2978;42.012;24.880;2023-03-12T04:48:35;1.53;;;1.43;;
5904;SDS011;2978;42.012;24.880;2023-03-12T04:51:01;3.67;;;1.40;;
5904;SDS011;2978;42.012;24.880;2023-03-12T04:53:28;2.20;;;1.20;;
5904;SDS011;2978;42.012;24.880;2023-03-12T04:55:53;1.67;;;1.53;;
5904;SDS011;2978;42.012;24.880;2023-03-12T04:58:19;4.10;;;1.67;;
5904;SDS011;2978;42.012;24.880;2023-03-12T05:00:45;6.00;;;1.70;;
5904;SDS011;2978;42.012;24.880;2023-03-12T05:03:12;1.50;;;1.40;;
5904;SDS011;2978;42.012;24.880;2023-03-12T05:05:38;2.07;;;1.87;;
5904;SDS011;2978;42.012;24.880;2023-03-12T05:08:03;4.80;;;1.50;;
5904;SDS011;2978;42.012;24.880;2023-03-12T05:10:29;3.77;;;1.30;;
5904;SDS011;2978;42.012;24.880;2023-03-12T05:12:54;2.17;;;1.80;;
5904;SDS011;2978;42.012;24.880;2023-03-12T05:15:20;2.37;;;1.50;;
5904;SDS011;2978;42.012;24.880;2023-03-12T05:17:45;1.50;;;1.40;;
5904;SDS011;2978;42.012;24.880;2023-03-12T05:20:11;3.53;;;1.63;;
5904;SDS011;2978;42.012;24.880;2023-03-12T05:22:37;7.40;;;1.90;;
5904;SDS011;2978;42.012;24.880;2023-03-12T05:25:03;4.63;;;2.30;;
5904;SDS011;2978;42.012;24.880;2023-03-12T05:27:29;2.13;;;1.77;;
5904;SDS011;2978;42.012;24.880;2023-03-12T05:29:54;4.50;;;1.63;;
5904;SDS011;2978;42.012;24.880;2023-03-12T05:32:20;9.53;;;1.87;;
5904;SDS011;2978;42.012;24.880;2023-03-12T05:34:45;2.63;;;1.43;;
5904;SDS011;2978;42.012;24.880;2023-03-12T05:37:10;8.20;;;6.13;;
5904;SDS011;2978;42.012;24.880;2023-03-12T05:39:36;8.23;;;1.43;;
5904;SDS011;2978;42.012;24.880;2023-03-12T05:42:02;2.00;;;1.60;;
5904;SDS011;2978;42.012;24.880;2023-03-12T05:44:28;1.40;;;1.20;;
5904;SDS011;2978;42.012;24.880;2023-03-12T05:46:54;4.53;;;1.70;;
5904;SDS011;2978;42.012;24.880;2023-03-12T05:49:20;1.40;;;1.13;;
5904;SDS011;2978;42.012;24.880;2023-03-12T05:51:46;2.50;;;2.30;;
5904;SDS011;2978;42.012;24.880;2023-03-12T05:54:12;1.83;;;1.47;;
5904;SDS011;2978;42.012;24.880;2023-03-12T05:56:38;1.67;;;1.40;;
5904;SDS011;2978;42.012;24.880;2023-03-12T05:59:03;1.40;;;1.30;;
5904;SDS011;2978;42.012;24.880;2023-03-12T06:01:29;3.97;;;1.87;;
5904;SDS011;2978;42.012;24.880;2023-03-12T06:03:57;3.00;;;2.20;;
5904;SDS011;2978;42.012;24.880;2023-03-12T06:06:23;1.50;;;1.40;;
5904;SDS011;2978;42.012;24.880;2023-03-12T06:08:49;1.90;;;1.43;;
5904;SDS011;2978;42.012;24.880;2023-03-12T06:11:15;1.70;;;1.50;;
5904;SDS011;2978;42.012;24.880;2023-03-12T06:13:40;1.40;;;1.30;;
5904;SDS011;2978;42.012;24.880;2023-03-12T06:16:08;2.10;;;1.33;;
5904;SDS011;2978;42.012;24.880;2023-03-12T06:18:36;3.10;;;1.37;;
5904;SDS011;2978;42.012;24.880;2023-03-12T06:21:09;3.07;;;1.47;;
5904;SDS011;2978;42.012;24.880;2023-03-12T06:23:37;4.00;;;1.73;;
5904;SDS011;2978;42.012;24.880;2023-03-12T06:26:03;1.90;;;1.70;;
5904;SDS011;2978;42.012;24.880;2023-03-12T06:28:29;2.00;;;1.53;;
5904;SDS011;2978;42.012;24.880;2023-03-12T06:30:55;2.33;;;1.40;;
5904;SDS011;2978;42.012;24.880;2023-03-12T06:33:20;5.90;;;2.20;;
5904;SDS011;2978;42.012;24.880;2023-03-12T06:35:46;1.63;;;1.53;;
5904;SDS011;2978;42.012;24.880;2023-03-12T06:38:12;2.40;;;1.40;;
5904;SDS011;2978;42.012;24.880;2023-03-12T06:40:37;1.83;;;1.40;;
5904;SDS011;2978;42.012;24.880;2023-03-12T06:43:03;4.60;;;3.40;;
5904;SDS011;2978;42.012;24.880;2023-03-12T06:45:28;11.37;;;9.00;;
5904;SDS011;2978;42.012;24.880;2023-03-12T06:47:54;3.80;;;2.40;;
5904;SDS011;2978;42.012;24.880;2023-03-12T06:56:12;1.73;;;1.63;;
5904;SDS011;2978;42.012;24.880;2023-03-12T06:58:38;3.57;;;1.20;;
5904;SDS011;2978;42.012;24.880;2023-03-12T07:01:07;3.60;;;1.20;;
5904;SDS011;2978;42.012;24.880;2023-03-12T07:03:32;2.77;;;1.80;;
5904;SDS011;2978;42.012;24.880;2023-03-12T07:05:58;2.03;;;1.33;;
5904;SDS011;2978;42.012;24.880;2023-03-12T07:18:09;2.20;;;1.63;;
5904;SDS011;2978;42.012;24.880;2023-03-12T07:20:36;2.60;;;1.93;;
5904;SDS011;2978;42.012;24.880;2023-03-12T07:26:25;3.70;;;2.80;;
5904;SDS011;2978;42.012;24.880;2023-03-12T07:28:51;3.83;;;3.03;;
5904;SDS011;2978;42.012;24.880;2023-03-12T07:31:16;2.80;;;1.87;;
5904;SDS011;2978;42.012;24.880;2023-03-12T07:33:42;2.50;;;1.80;;
5904;SDS011;2978;42.012;24.880;2023-03-12T07:36:07;2.40;;;1.23;;
5904;SDS011;2978;42.012;24.880;2023-03-12T07:38:33;1.60;;;1.50;;
5904;SDS011;2978;42.012;24.880;2023-03-12T07:40:58;3.00;;;1.60;;
5904;SDS011;2978;42.012;24.880;2023-03-12T07:43:24;4.93;;;1.93;;
5904;SDS011;2978;42.012;24.880;2023-03-12T07:45:50;1.80;;;1.60;;
5904;SDS011;2978;42.012;24.880;2023-03-12T07:48:16;1.47;;;1.33;;
5904;SDS011;2978;42.012;24.880;2023-03-12T07:50:43;1.20;;;1.10;;
5904;SDS011;2978;42.012;24.880;2023-03-12T07:53:09;1.53;;;1.20;;
5904;SDS011;2978;42.012;24.880;2023-03-12T07:55:35;4.30;;;1.80;;
5904;SDS011;2978;42.012;24.880;2023-03-12T07:58:00;4.50;;;0.97;;
5904;SDS011;2978;42.012;24.880;2023-03-12T08:00:26;1.73;;;1.40;;
5904;SDS011;2978;42.012;24.880;2023-03-12T08:03:05;1.50;;;1.40;;
5904;SDS011;2978;42.012;24.880;2023-03-12T08:05:39;1.93;;;1.33;;
5904;SDS011;2978;42.012;24.880;2023-03-12T08:08:10;1.50;;;1.17;;
5904;SDS011;2978;42.012;24.880;2023-03-12T08:10:39;1.70;;;1.27;;
5904;SDS011;2978;42.012;24.880;2023-03-12T08:16:26;2.80;;;1.77;;
5904;SDS011;2978;42.012;24.880;2023-03-12T08:18:52;1.40;;;1.30;;
5904;SDS011;2978;42.012;24.880;2023-03-12T08:21:17;7.70;;;1.80;;
5904;SDS011;2978;42.012;24.880;2023-03-12T08:23:43;2.00;;;1.50;;
5904;SDS011;2978;42.012;24.880;2023-03-12T08:26:08;1.80;;;1.40;;
5904;SDS011;2978;42.012;24.880;2023-03-12T08:28:33;2.00;;;1.40;;
5904;SDS011;2978;42.012;24.880;2023-03-12T08:30:59;4.20;;;2.03;;
5904;SDS011;2978;42.012;24.880;2023-03-12T08:33:25;2.90;;;1.30;;
5904;SDS011;2978;42.012;24.880;2023-03-12T08:35:50;4.20;;;1.77;;
5904;SDS011;2978;42.012;24.880;2023-03-12T08:38:16;2.50;;;1.43;;
5904;SDS011;2978;42.012;24.880;2023-03-12T08:40:42;3.80;;;1.60;;
5904;SDS011;2978;42.012;24.880;2023-03-12T08:49:05;4.03;;;2.03;;
5904;SDS011;2978;42.012;24.880;2023-03-12T08:55:00;3.43;;;2.30;;
5904;SDS011;2978;42.012;24.880;2023-03-12T09:00:47;2.20;;;1.50;;
5904;SDS011;2978;42.012;24.880;2023-03-12T09:03:25;4.17;;;2.00;;
5904;SDS011;2978;42.012;24.880;2023-03-12T09:05:58;3.00;;;1.80;;
5904;SDS011;2978;42.012;24.880;2023-03-12T09:30:39;2.13;;;1.70;;
5904;SDS011;2978;42.012;24.880;2023-03-12T09:36:32;6.73;;;4.60;;
5904;SDS011;2978;42.012;24.880;2023-03-12T09:38:59;5.57;;;1.47;;
5904;SDS011;2978;42.012;24.880;2023-03-12T09:41:27;3.13;;;1.37;;
5904;SDS011;2978;42.012;24.880;2023-03-12T09:46:31;2.37;;;1.50;;
5904;SDS011;2978;42.012;24.880;2023-03-12T09:49:14;1.50;;;1.40;;
5904;SDS011;2978;42.012;24.880;2023-03-12T09:51:50;2.10;;;1.40;;
5904;SDS011;2978;42.012;24.880;2023-03-12T09:54:23;3.03;;;2.20;;
5904;SDS011;2978;42.012;24.880;2023-03-12T09:56:51;1.40;;;1.30;;
5904;SDS011;2978;42.012;24.880;2023-03-12T09:59:24;3.10;;;1.57;;
5904;SDS011;2978;42.012;24.880;2023-03-12T10:02:20;3.80;;;1.60;;
5904;SDS011;2978;42.012;24.880;2023-03-12T10:16:30;2.43;;;1.63;;
5904;SDS011;2978;42.012;24.880;2023-03-12T10:22:02;1.70;;;1.10;;
5904;SDS011;2978;42.012;24.880;2023-03-12T10:27:27;1.60;;;1.20;;
5904;SDS011;2978;42.012;24.880;2023-03-12T10:29:54;6.33;;;2.00;;
5904;SDS011;2978;42.012;24.880;2023-03-12T10:35:06;4.00;;;1.67;;
5904;SDS011;2978;42.012;24.880;2023-03-12T10:37:43;1.70;;;1.60;;
5904;SDS011;2978;42.012;24.880;2023-03-12T10:40:17;2.57;;;1.70;;
5904;SDS011;2978;42.012;24.880;2023-03-12T10:57:45;4.03;;;3.40;;
5904;SDS011;2978;42.012;24.880;2023-03-12T11:18:18;2.00;;;1.53;;
5904;SDS011;2978;42.012;24.880;2023-03-12T11:20:47;1.60;;;1.40;;
5904;SDS011;2978;42.012;24.880;2023-03-12T11:23:28;1.77;;;1.57;;
5904;SDS011;2978;42.012;24.880;2023-03-12T11:25:56;1.83;;;1.50;;
5904;SDS011;2978;42.012;24.880;2023-03-12T11:28:27;3.80;;;1.67;;
5904;SDS011;2978;42.012;24.880;2023-03-12T11:31:02;3.37;;;1.60;;
5904;SDS011;2978;42.012;24.880;2023-03-12T11:33:32;2.30;;;1.83;;
5904;SDS011;2978;42.012;24.880;2023-03-12T11:36:07;4.13;;;1.90;;
5904;SDS011;2978;42.012;24.880;2023-03-12T11:39:21;1.70;;;1.40;;
5904;SDS011;2978;42.012;24.880;2023-03-12T11:44:48;3.43;;;1.47;;
5904;SDS011;2978;42.012;24.880;2023-03-12T12:00:56;4.10;;;2.07;;
5904;SDS011;2978;42.012;24.880;2023-03-12T12:13:20;1.87;;;1.60;;
5904;SDS011;2978;42.012;24.880;2023-03-12T12:21:55;2.60;;;1.60;;
5904;SDS011;2978;42.012;24.880;2023-03-12T12:36:25;5.23;;;1.53;;
5904;SDS011;2978;42.012;24.880;2023-03-12T12:50:50;2.17;;;1.80;;
5904;SDS011;2978;42.012;24.880;2023-03-12T12:58:37;2.40;;;2.10;;
5904;SDS011;2978;42.012;24.880;2023-03-12T13:01:15;3.80;;;1.80;;
5904;SDS011;2978;42.012;24.880;2023-03-12T13:03:42;1.80;;;1.60;;
5904;SDS011;2978;42.012;24.880;2023-03-12T13:06:09;3.20;;;1.50;;
5904;SDS011;2978;42.012;24.880;2023-03-12T13:18:07;1.90;;;1.70;;
5904;SDS011;2978;42.012;24.880;2023-03-12T13:21:11;2.20;;;1.70;;
5904;SDS011;2978;42.012;24.880;2023-03-12T13:23:52;2.13;;;1.93;;
5904;SDS011;2978;42.012;24.880;2023-03-12T13:48:18;2.10;;;1.90;;
5904;SDS011;2978;42.012;24.880;2023-03-12T13:50:49;2.60;;;1.87;;
5904;SDS011;2978;42.012;24.880;2023-03-12T13:53:23;2.53;;;1.60;;
5904;SDS011;2978;42.012;24.880;2023-03-12T13:56:03;3.03;;;1.77;;
5904;SDS011;2978;42.012;24.880;2023-03-12T13:58:29;1.80;;;1.50;;
5904;SDS011;2978;42.012;24.880;2023-03-12T14:01:02;1.70;;;1.23;;
5904;SDS011;2978;42.012;24.880;2023-03-12T14:03:30;1.50;;;1.40;;
5904;SDS011;2978;42.012;24.880;2023-03-12T14:08:51;1.90;;;1.60;;
5904;SDS011;2978;42.012;24.880;2023-03-12T14:17:26;3.20;;;1.40;;
5904;SDS011;2978;42.012;24.880;2023-03-12T14:19:58;1.67;;;1.57;;
5904;SDS011;2978;42.012;24.880;2023-03-12T14:29:12;2.47;;;1.77;;
5904;SDS011;2978;42.012;24.880;2023-03-12T14:32:17;1.60;;;1.50;;
5904;SDS011;2978;42.012;24.880;2023-03-12T14:34:45;2.00;;;1.63;;
5904;SDS011;2978;42.012;24.880;2023-03-12T14:37:40;2.47;;;1.70;;
5904;SDS011;2978;42.012;24.880;2023-03-12T14:42:49;2.93;;;2.20;;
5904;SDS011;2978;42.012;24.880;2023-03-12T14:45:19;10.00;;;4.30;;
5904;SDS011;2978;42.012;24.880;2023-03-12T14:47:48;4.10;;;3.37;;
5904;SDS011;2978;42.012;24.880;2023-03-12T14:50:22;4.00;;;3.70;;
5904;SDS011;2978;42.012;24.880;2023-03-12T14:52:50;2.30;;;2.10;;
5904;SDS011;2978;42.012;24.880;2023-03-12T14:55:18;4.10;;;2.40;;
5904;SDS011;2978;42.012;24.880;2023-03-12T14:57:46;3.63;;;1.77;;
5904;SDS011;2978;42.012;24.880;2023-03-12T15:00:26;4.43;;;2.57;;
5904;SDS011;2978;42.012;24.880;2023-03-12T15:02:53;3.60;;;2.03;;
5904;SDS011;2978;42.012;24.880;2023-03-12T15:05:21;5.60;;;2.63;;
5904;SDS011;2978;42.012;24.880;2023-03-12T15:07:48;5.73;;;2.33;;
5904;SDS011;2978;42.012;24.880;2023-03-12T15:10:19;2.50;;;2.30;;
5904;SDS011;2978;42.012;24.880;2023-03-12T15:12:47;4.60;;;2.17;;
5904;SDS011;2978;42.012;24.880;2023-03-12T15:18:12;4.57;;;2.17;;
5904;SDS011;2978;42.012;24.880;2023-03-12T15:20:40;2.90;;;1.60;;
5904;SDS011;2978;42.012;24.880;2023-03-12T15:23:07;2.70;;;1.93;;
5904;SDS011;2978;42.012;24.880;2023-03-12T15:25:36;2.70;;;2.03;;
5904;SDS011;2978;42.012;24.880;2023-03-12T15:30:42;1.77;;;1.67;;
5904;SDS011;2978;42.012;24.880;2023-03-12T15:35:56;3.50;;;2.03;;
5904;SDS011;2978;42.012;24.880;2023-03-12T15:38:23;2.20;;;1.67;;
5904;SDS011;2978;42.012;24.880;2023-03-12T15:40:50;2.90;;;2.23;;
5904;SDS011;2978;42.012;24.880;2023-03-12T15:43:19;8.60;;;2.70;;
5904;SDS011;2978;42.012;24.880;2023-03-12T15:45:46;5.00;;;3.00;;
5904;SDS011;2978;42.012;24.880;2023-03-12T15:48:22;3.53;;;2.50;;
5904;SDS011;2978;42.012;24.880;2023-03-12T15:50:53;5.53;;;3.33;;
5904;SDS011;2978;42.012;24.880;2023-03-12T16:01:10;5.80;;;3.90;;
5904;SDS011;2978;42.012;24.880;2023-03-12T16:03:51;6.57;;;4.33;;
5904;SDS011;2978;42.012;24.880;2023-03-12T16:06:19;4.87;;;4.00;;
5904;SDS011;2978;42.012;24.880;2023-03-12T16:08:47;7.63;;;4.03;;
5904;SDS011;2978;42.012;24.880;2023-03-12T16:11:16;7.53;;;4.23;;
5904;SDS011;2978;42.012;24.880;2023-03-12T16:13:47;5.37;;;3.53;;
5904;SDS011;2978;42.012;24.880;2023-03-12T16:16:15;5.80;;;4.43;;
5904;SDS011;2978;42.012;24.880;2023-03-12T16:18:41;5.23;;;4.00;;
5904;SDS011;2978;42.012;24.880;2023-03-12T16:21:07;10.53;;;4.00;;
5904;SDS011;2978;42.012;24.880;2023-03-12T16:23:33;7.53;;;4.00;;
5904;SDS011;2978;42.012;24.880;2023-03-12T16:25:58;12.17;;;6.70;;
5904;SDS011;2978;42.012;24.880;2023-03-12T16:28:24;9.43;;;5.13;;
5904;SDS011;2978;42.012;24.880;2023-03-12T16:30:50;4.60;;;3.10;;
5904;SDS011;2978;42.012;24.880;2023-03-12T16:33:17;13.00;;;5.40;;
5904;SDS011;2978;42.012;24.880;2023-03-12T16:35:45;6.83;;;4.70;;
5904;SDS011;2978;42.012;24.880;2023-03-12T16:38:10;12.10;;;6.33;;
5904;SDS011;2978;42.012;24.880;2023-03-12T16:40:37;7.17;;;5.17;;
5904;SDS011;2978;42.012;24.880;2023-03-12T16:43:10;13.83;;;7.83;;
5904;SDS011;2978;42.012;24.880;2023-03-12T16:45:43;9.43;;;6.27;;
5904;SDS011;2978;42.012;24.880;2023-03-12T16:48:12;8.40;;;4.30;;
5904;SDS011;2978;42.012;24.880;2023-03-12T16:50:39;10.17;;;5.97;;
5904;SDS011;2978;42.012;24.880;2023-03-12T16:53:05;12.53;;;4.50;;
5904;SDS011;2978;42.012;24.880;2023-03-12T16:55:32;10.83;;;4.60;;
5904;SDS011;2978;42.012;24.880;2023-03-12T16:58:09;3.83;;;2.70;;
5904;SDS011;2978;42.012;24.880;2023-03-12T17:00:37;5.43;;;4.10;;
5904;SDS011;2978;42.012;24.880;2023-03-12T17:03:03;8.00;;;3.30;;
5904;SDS011;2978;42.012;24.880;2023-03-12T17:05:30;3.47;;;3.10;;
5904;SDS011;2978;42.012;24.880;2023-03-12T17:07:55;3.80;;;3.00;;
5904;SDS011;2978;42.012;24.880;2023-03-12T17:10:22;9.87;;;3.40;;
5904;SDS011;2978;42.012;24.880;2023-03-12T17:12:48;5.50;;;3.27;;
5904;SDS011;2978;42.012;24.880;2023-03-12T17:15:16;5.47;;;3.10;;
5904;SDS011;2978;42.012;24.880;2023-03-12T17:17:45;6.60;;;3.73;;
5904;SDS011;2978;42.012;24.880;2023-03-12T17:20:12;7.63;;;4.27;;
5904;SDS011;2978;42.012;24.880;2023-03-12T17:22:39;7.93;;;5.30;;
5904;SDS011;2978;42.012;24.880;2023-03-12T17:25:05;10.27;;;6.77;;
5904;SDS011;2978;42.012;24.880;2023-03-12T17:27:32;6.50;;;3.43;;
5904;SDS011;2978;42.012;24.880;2023-03-12T17:29:57;6.73;;;4.37;;
5904;SDS011;2978;42.012;24.880;2023-03-12T17:32:23;18.60;;;9.57;;
5904;SDS011;2978;42.012;24.880;2023-03-12T17:34:54;9.57;;;5.57;;
5904;SDS011;2978;42.012;24.880;2023-03-12T17:37:39;11.40;;;6.73;;
5904;SDS011;2978;42.012;24.880;2023-03-12T17:40:17;9.40;;;5.57;;
5904;SDS011;2978;42.012;24.880;2023-03-12T17:42:43;9.87;;;5.87;;
5904;SDS011;2978;42.012;24.880;2023-03-12T17:45:08;15.23;;;7.43;;
5904;SDS011;2978;42.012;24.880;2023-03-12T17:47:34;7.10;;;4.30;;
5904;SDS011;2978;42.012;24.880;2023-03-12T17:50:01;4.83;;;3.10;;
5904;SDS011;2978;42.012;24.880;2023-03-12T17:52:30;9.17;;;3.60;;
5904;SDS011;2978;42.012;24.880;2023-03-12T17:58:17;4.13;;;2.80;;
5904;SDS011;2978;42.012;24.880;2023-03-12T18:00:43;7.00;;;3.63;;
5904;SDS011;2978;42.012;24.880;2023-03-12T18:09:51;9.03;;;6.50;;
5904;SDS011;2978;42.012;24.880;2023-03-12T18:15:25;3.37;;;2.93;;
5904;SDS011;2978;42.012;24.880;2023-03-12T18:17:51;8.20;;;4.80;;
5904;SDS011;2978;42.012;24.880;2023-03-12T18:20:20;6.87;;;4.20;;
5904;SDS011;2978;42.012;24.880;2023-03-12T18:22:46;10.27;;;5.30;;
5904;SDS011;2978;42.012;24.880;2023-03-12T18:25:11;6.77;;;4.07;;
5904;SDS011;2978;42.012;24.880;2023-03-12T18:27:36;8.60;;;5.47;;
5904;SDS011;2978;42.012;24.880;2023-03-12T18:30:02;10.27;;;5.37;;
5904;SDS011;2978;42.012;24.880;2023-03-12T18:32:28;9.47;;;4.97;;
5904;SDS011;2978;42.012;24.880;2023-03-12T18:34:53;7.60;;;3.47;;
5904;SDS011;2978;42.012;24.880;2023-03-12T18:37:19;8.30;;;4.80;;
5904;SDS011;2978;42.012;24.880;2023-03-12T18:39:44;7.90;;;5.53;;
5904;SDS011;2978;42.012;24.880;2023-03-12T18:42:11;6.90;;;4.33;;
5904;SDS011;2978;42.012;24.880;2023-03-12T18:44:36;8.47;;;5.37;;
5904;SDS011;2978;42.012;24.880;2023-03-12T18:47:02;7.70;;;4.40;;
5904;SDS011;2978;42.012;24.880;2023-03-12T18:49:27;5.60;;;4.50;;
5904;SDS011;2978;42.012;24.880;2023-03-12T18:51:53;5.77;;;4.40;;
5904;SDS011;2978;42.012;24.880;2023-03-12T18:54:20;8.70;;;5.13;;
5904;SDS011;2978;42.012;24.880;2023-03-12T18:56:46;9.10;;;4.93;;
5904;SDS011;2978;42.012;24.880;2023-03-12T18:59:12;8.33;;;4.70;;
5904;SDS011;2978;42.012;24.880;2023-03-12T19:01:39;6.17;;;4.80;;
5904;SDS011;2978;42.012;24.880;2023-03-12T19:07:26;14.60;;;8.23;;
5904;SDS011;2978;42.012;24.880;2023-03-12T19:12:51;4.40;;;3.90;;
5904;SDS011;2978;42.012;24.880;2023-03-12T19:15:17;4.17;;;3.47;;
5904;SDS011;2978;42.012;24.880;2023-03-12T19:17:42;3.60;;;2.90;;
5904;SDS011;2978;42.012;24.880;2023-03-12T19:20:11;3.10;;;2.60;;
5904;SDS011;2978;42.012;24.880;2023-03-12T19:22:36;4.73;;;3.07;;
5904;SDS011;2978;42.012;24.880;2023-03-12T19:25:02;3.87;;;3.10;;
5904;SDS011;2978;42.012;24.880;2023-03-12T19:27:27;5.77;;;2.90;;
5904;SDS011;2978;42.012;24.880;2023-03-12T19:29:53;5.60;;;4.03;;
5904;SDS011;2978;42.012;24.880;2023-03-12T19:32:18;7.13;;;4.30;;
5904;SDS011;2978;42.012;24.880;2023-03-12T19:34:44;4.40;;;3.00;;
5904;SDS011;2978;42.012;24.880;2023-03-12T19:37:13;3.07;;;2.70;;
5904;SDS011;2978;42.012;24.880;2023-03-12T19:39:39;3.03;;;2.33;;
5904;SDS011;2978;42.012;24.880;2023-03-12T19:42:04;2.80;;;2.40;;
5904;SDS011;2978;42.012;24.880;2023-03-12T19:44:30;3.93;;;3.00;;
5904;SDS011;2978;42.012;24.880;2023-03-12T19:46:59;2.60;;;2.30;;
5904;SDS011;2978;42.012;24.880;2023-03-12T19:49:26;5.17;;;3.20;;
5904;SDS011;2978;42.012;24.880;2023-03-12T19:51:51;2.40;;;2.20;;
5904;SDS011;2978;42.012;24.880;2023-03-12T19:54:17;3.13;;;2.20;;
5904;SDS011;2978;42.012;24.880;2023-03-12T19:56:42;4.70;;;3.40;;
5904;SDS011;2978;42.012;24.880;2023-03-12T19:59:07;3.90;;;2.60;;
5904;SDS011;2978;42.012;24.880;2023-03-12T20:01:33;4.10;;;2.90;;